sensor_id;sensor_type;location;lat;lon;timestamp;P1;durP1;ratioP1;P2;durP2;ratioP2
23712;SDS011;12035;49.978;8.298;2023-11-21T00:03:03;3.53;;;1.10;;
23712;SDS011;12035;49.978;8.298;2023-11-21T00:08:03;3.70;;;0.90;;
23712;SDS011;12035;49.978;8.298;2023-11-21T00:13:00;1.65;;;0.70;;
23712;SDS011;12035;49.978;8.298;2023-11-21T00:17:59;5.47;;;1.00;;
23712;SDS011;12035;49.978;8.298;2023-11-21T00:22:58;2.13;;;0.93;;
23712;SDS011;12035;49.978;8.298;2023-11-21T00:27:58;4.72;;;0.70;;
23712;SDS011;12035;49.978;8.298;2023-11-21T00:32:56;1.58;;;0.52;;
23712;SDS011;12035;49.978;8.298;2023-11-21T00:37:53;2.72;;;0.70;;
23712;SDS011;12035;49.978;8.298;2023-11-21T00:42:51;1.63;;;0.65;;
23712;SDS011;12035;49.978;8.298;2023-11-21T00:47:49;2.30;;;1.00;;
23712;SDS011;12035;49.978;8.298;2023-11-21T00:52:46;1.33;;;0.55;;
23712;SDS011;12035;49.978;8.298;2023-11-21T00:57:43;1.90;;;0.70;;
23712;SDS011;12035;49.978;8.298;2023-11-21T01:02:40;2.00;;;0.70;;
23712;SDS011;12035;49.978;8.298;2023-11-21T01:07:41;1.67;;;0.70;;
23712;SDS011;12035;49.978;8.298;2023-11-21T01:12:38;1.55;;;0.63;;
23712;SDS011;12035;49.978;8.298;2023-11-21T01:17:35;1.75;;;0.60;;
23712;SDS011;12035;49.978;8.298;2023-11-21T01:22:33;2.85;;;0.70;;
23712;SDS011;12035;49.978;8.298;2023-11-21T01:27:31;2.30;;;0.90;;
23712;SDS011;12035;49.978;8.298;2023-11-21T01:32:28;2.00;;;0.70;;
23712;SDS011;12035;49.978;8.298;2023-11-21T01:37:25;3.22;;;0.70;;
23712;SDS011;12035;49.978;8.298;2023-11-21T01:42:23;4.45;;;0.60;;
23712;SDS011;12035;49.978;8.298;2023-11-21T01:47:22;3.65;;;1.00;;
23712;SDS011;12035;49.978;8.298;2023-11-21T01:52:19;1.95;;;1.05;;
23712;SDS011;12035;49.978;8.298;2023-11-21T01:57:18;2.15;;;1.10;;
23712;SDS011;12035;49.978;8.298;2023-11-21T02:02:16;3.17;;;1.25;;
23712;SDS011;12035;49.978;8.298;2023-11-21T02:07:14;3.42;;;1.27;;
23712;SDS011;12035;49.978;8.298;2023-11-21T02:12:11;3.10;;;1.27;;
23712;SDS011;12035;49.978;8.298;2023-11-21T02:17:08;2.72;;;1.30;;
23712;SDS011;12035;49.978;8.298;2023-11-21T02:22:05;3.10;;;1.38;;
23712;SDS011;12035;49.978;8.298;2023-11-21T02:27:05;2.42;;;1.15;;
23712;SDS011;12035;49.978;8.298;2023-11-21T02:32:02;4.47;;;1.50;;
23712;SDS011;12035;49.978;8.298;2023-11-21T02:37:00;2.83;;;1.33;;
23712;SDS011;12035;49.978;8.298;2023-11-21T02:41:57;3.72;;;1.30;;
23712;SDS011;12035;49.978;8.298;2023-11-21T02:46:56;2.90;;;1.40;;
23712;SDS011;12035;49.978;8.298;2023-11-21T02:51:53;2.25;;;1.20;;
23712;SDS011;12035;49.978;8.298;2023-11-21T02:56:50;2.88;;;1.40;;
23712;SDS011;12035;49.978;8.298;2023-11-21T03:01:47;2.90;;;1.63;;
23712;SDS011;12035;49.978;8.298;2023-11-21T03:06:46;2.17;;;1.33;;
23712;SDS011;12035;49.978;8.298;2023-11-21T03:11:43;2.72;;;1.42;;
23712;SDS011;12035;49.978;8.298;2023-11-21T03:16:40;3.67;;;1.48;;
23712;SDS011;12035;49.978;8.298;2023-11-21T03:21:37;1.90;;;1.17;;
23712;SDS011;12035;49.978;8.298;2023-11-21T03:26:35;2.50;;;1.45;;
23712;SDS011;12035;49.978;8.298;2023-11-21T03:31:33;2.60;;;1.70;;
23712;SDS011;12035;49.978;8.298;2023-11-21T03:36:31;4.43;;;2.10;;
23712;SDS011;12035;49.978;8.298;2023-11-21T03:41:28;2.97;;;1.85;;
23712;SDS011;12035;49.978;8.298;2023-11-21T03:46:26;3.30;;;1.90;;
23712;SDS011;12035;49.978;8.298;2023-11-21T03:51:23;3.67;;;2.00;;
23712;SDS011;12035;49.978;8.298;2023-11-21T03:56:20;3.35;;;2.25;;
23712;SDS011;12035;49.978;8.298;2023-11-21T04:01:20;3.53;;;2.45;;
23712;SDS011;12035;49.978;8.298;2023-11-21T04:06:19;3.15;;;2.08;;
23712;SDS011;12035;49.978;8.298;2023-11-21T04:11:16;3.50;;;1.80;;
23712;SDS011;12035;49.978;8.298;2023-11-21T04:16:13;4.10;;;2.47;;
23712;SDS011;12035;49.978;8.298;2023-11-21T04:21:10;3.70;;;2.60;;
23712;SDS011;12035;49.978;8.298;2023-11-21T04:26:09;3.40;;;1.60;;
23712;SDS011;12035;49.978;8.298;2023-11-21T04:31:06;2.78;;;2.03;;
23712;SDS011;12035;49.978;8.298;2023-11-21T04:36:03;2.67;;;1.63;;
23712;SDS011;12035;49.978;8.298;2023-11-21T04:41:01;2.38;;;1.25;;
23712;SDS011;12035;49.978;8.298;2023-11-21T04:46:00;2.95;;;1.30;;
23712;SDS011;12035;49.978;8.298;2023-11-21T04:50:57;3.22;;;1.45;;
23712;SDS011;12035;49.978;8.298;2023-11-21T04:55:54;2.10;;;1.20;;
23712;SDS011;12035;49.978;8.298;2023-11-21T05:00:51;1.13;;;1.00;;
23712;SDS011;12035;49.978;8.298;2023-11-21T05:05:50;1.42;;;1.02;;
23712;SDS011;12035;49.978;8.298;2023-11-21T05:10:47;2.20;;;0.93;;
23712;SDS011;12035;49.978;8.298;2023-11-21T05:15:45;2.20;;;1.33;;
23712;SDS011;12035;49.978;8.298;2023-11-21T05:20:42;3.30;;;1.60;;
23712;SDS011;12035;49.978;8.298;2023-11-21T05:25:40;2.22;;;1.42;;
23712;SDS011;12035;49.978;8.298;2023-11-21T05:30:37;2.95;;;1.60;;
23712;SDS011;12035;49.978;8.298;2023-11-21T05:35:34;2.20;;;1.40;;
23712;SDS011;12035;49.978;8.298;2023-11-21T05:40:31;2.55;;;1.52;;
23712;SDS011;12035;49.978;8.298;2023-11-21T05:45:33;2.45;;;1.73;;
23712;SDS011;12035;49.978;8.298;2023-11-21T05:50:30;3.83;;;1.90;;
23712;SDS011;12035;49.978;8.298;2023-11-21T05:55:27;2.67;;;1.98;;
23712;SDS011;12035;49.978;8.298;2023-11-21T06:00:24;2.45;;;1.67;;
23712;SDS011;12035;49.978;8.298;2023-11-21T06:05:23;4.20;;;1.83;;
23712;SDS011;12035;49.978;8.298;2023-11-21T06:10:22;2.65;;;1.70;;
23712;SDS011;12035;49.978;8.298;2023-11-21T06:15:19;3.50;;;1.75;;
23712;SDS011;12035;49.978;8.298;2023-11-21T06:20:18;3.25;;;1.80;;
23712;SDS011;12035;49.978;8.298;2023-11-21T06:25:17;5.28;;;2.03;;
23712;SDS011;12035;49.978;8.298;2023-11-21T06:30:14;2.67;;;1.60;;
23712;SDS011;12035;49.978;8.298;2023-11-21T06:35:15;4.47;;;1.83;;
23712;SDS011;12035;49.978;8.298;2023-11-21T06:40:12;3.42;;;1.70;;
23712;SDS011;12035;49.978;8.298;2023-11-21T06:45:11;3.25;;;1.48;;
23712;SDS011;12035;49.978;8.298;2023-11-21T06:50:10;3.20;;;1.67;;
23712;SDS011;12035;49.978;8.298;2023-11-21T06:55:07;3.60;;;1.58;;
23712;SDS011;12035;49.978;8.298;2023-11-21T07:00:05;2.33;;;1.30;;
23712;SDS011;12035;49.978;8.298;2023-11-21T07:05:06;2.40;;;1.48;;
23712;SDS011;12035;49.978;8.298;2023-11-21T07:10:03;2.83;;;1.67;;
23712;SDS011;12035;49.978;8.298;2023-11-21T07:15:02;2.95;;;1.73;;
23712;SDS011;12035;49.978;8.298;2023-11-21T07:20:06;2.70;;;1.52;;
23712;SDS011;12035;49.978;8.298;2023-11-21T07:25:04;4.03;;;2.05;;
23712;SDS011;12035;49.978;8.298;2023-11-21T07:30:02;2.70;;;1.70;;
23712;SDS011;12035;49.978;8.298;2023-11-21T07:35:03;2.60;;;1.85;;
23712;SDS011;12035;49.978;8.298;2023-11-21T07:40:03;3.78;;;2.10;;
23712;SDS011;12035;49.978;8.298;2023-11-21T07:45:03;3.08;;;2.28;;
23712;SDS011;12035;49.978;8.298;2023-11-21T07:50:03;2.90;;;1.80;;
23712;SDS011;12035;49.978;8.298;2023-11-21T07:55:03;2.85;;;1.90;;
23712;SDS011;12035;49.978;8.298;2023-11-21T08:00:02;2.63;;;1.73;;
23712;SDS011;12035;49.978;8.298;2023-11-21T08:05:05;2.95;;;2.28;;
23712;SDS011;12035;49.978;8.298;2023-11-21T08:10:03;2.72;;;1.77;;
23712;SDS011;12035;49.978;8.298;2023-11-21T08:15:01;4.50;;;2.30;;
23712;SDS011;12035;49.978;8.298;2023-11-21T08:19:59;3.70;;;2.38;;
23712;SDS011;12035;49.978;8.298;2023-11-21T08:24:59;3.15;;;2.22;;
23712;SDS011;12035;49.978;8.298;2023-11-21T08:29:59;4.25;;;2.40;;
23712;SDS011;12035;49.978;8.298;2023-11-21T08:34:56;3.03;;;1.90;;
23712;SDS011;12035;49.978;8.298;2023-11-21T08:39:53;3.88;;;2.10;;
23712;SDS011;12035;49.978;8.298;2023-11-21T08:44:51;3.22;;;1.80;;
23712;SDS011;12035;49.978;8.298;2023-11-21T08:49:48;4.43;;;1.92;;
23712;SDS011;12035;49.978;8.298;2023-11-21T08:54:48;2.97;;;1.50;;
23712;SDS011;12035;49.978;8.298;2023-11-21T08:59:52;3.00;;;1.63;;
23712;SDS011;12035;49.978;8.298;2023-11-21T09:04:50;3.13;;;1.67;;
23712;SDS011;12035;49.978;8.298;2023-11-21T09:09:47;3.70;;;1.83;;
23712;SDS011;12035;49.978;8.298;2023-11-21T09:14:45;2.40;;;1.38;;
23712;SDS011;12035;49.978;8.298;2023-11-21T09:19:44;2.75;;;1.30;;
23712;SDS011;12035;49.978;8.298;2023-11-21T09:24:45;3.33;;;1.67;;
23712;SDS011;12035;49.978;8.298;2023-11-21T09:29:43;4.18;;;1.98;;
23712;SDS011;12035;49.978;8.298;2023-11-21T09:34:40;3.90;;;1.52;;
23712;SDS011;12035;49.978;8.298;2023-11-21T09:39:39;3.50;;;1.63;;
23712;SDS011;12035;49.978;8.298;2023-11-21T09:44:39;3.70;;;1.40;;
23712;SDS011;12035;49.978;8.298;2023-11-21T09:49:43;2.87;;;1.67;;
23712;SDS011;12035;49.978;8.298;2023-11-21T09:54:45;3.90;;;1.50;;
23712;SDS011;12035;49.978;8.298;2023-11-21T09:59:44;3.17;;;1.50;;
23712;SDS011;12035;49.978;8.298;2023-11-21T10:04:43;6.10;;;1.70;;
23712;SDS011;12035;49.978;8.298;2023-11-21T10:09:40;3.88;;;1.90;;
23712;SDS011;12035;49.978;8.298;2023-11-21T10:14:40;3.17;;;1.63;;
23712;SDS011;12035;49.978;8.298;2023-11-21T10:19:38;4.75;;;1.90;;
23712;SDS011;12035;49.978;8.298;2023-11-21T10:24:36;4.68;;;1.80;;
23712;SDS011;12035;49.978;8.298;2023-11-21T10:29:33;3.70;;;1.55;;
23712;SDS011;12035;49.978;8.298;2023-11-21T10:34:32;5.70;;;1.88;;
23712;SDS011;12035;49.978;8.298;2023-11-21T10:39:30;3.33;;;1.50;;
23712;SDS011;12035;49.978;8.298;2023-11-21T10:44:29;4.55;;;1.80;;
23712;SDS011;12035;49.978;8.298;2023-11-21T10:49:27;6.88;;;2.90;;
23712;SDS011;12035;49.978;8.298;2023-11-21T10:54:25;4.68;;;2.00;;
23712;SDS011;12035;49.978;8.298;2023-11-21T10:59:23;3.38;;;1.73;;
23712;SDS011;12035;49.978;8.298;2023-11-21T11:04:21;3.40;;;1.85;;
23712;SDS011;12035;49.978;8.298;2023-11-21T11:09:21;29.08;;;3.28;;
23712;SDS011;12035;49.978;8.298;2023-11-21T11:14:19;6.30;;;1.90;;
23712;SDS011;12035;49.978;8.298;2023-11-21T11:19:20;4.45;;;1.90;;
23712;SDS011;12035;49.978;8.298;2023-11-21T11:24:21;3.17;;;1.52;;
23712;SDS011;12035;49.978;8.298;2023-11-21T11:29:35;3.55;;;1.40;;
23712;SDS011;12035;49.978;8.298;2023-11-21T11:34:41;4.27;;;1.37;;
23712;SDS011;12035;49.978;8.298;2023-11-21T11:39:44;4.72;;;1.52;;
23712;SDS011;12035;49.978;8.298;2023-11-21T11:44:49;4.60;;;1.83;;
23712;SDS011;12035;49.978;8.298;2023-11-21T11:55:12;3.88;;;1.42;;
23712;SDS011;12035;49.978;8.298;2023-11-21T12:00:15;5.82;;;1.70;;
23712;SDS011;12035;49.978;8.298;2023-11-21T12:05:16;3.45;;;1.58;;
23712;SDS011;12035;49.978;8.298;2023-11-21T12:10:14;4.28;;;1.50;;
23712;SDS011;12035;49.978;8.298;2023-11-21T12:15:14;5.53;;;1.65;;
23712;SDS011;12035;49.978;8.298;2023-11-21T12:20:12;3.72;;;1.70;;
23712;SDS011;12035;49.978;8.298;2023-11-21T12:25:13;2.95;;;1.45;;
23712;SDS011;12035;49.978;8.298;2023-11-21T12:30:15;5.20;;;1.80;;
23712;SDS011;12035;49.978;8.298;2023-11-21T12:35:14;2.75;;;1.45;;
23712;SDS011;12035;49.978;8.298;2023-11-21T12:40:13;3.70;;;1.50;;
23712;SDS011;12035;49.978;8.298;2023-11-21T12:45:20;4.97;;;1.48;;
23712;SDS011;12035;49.978;8.298;2023-11-21T12:50:20;5.15;;;1.48;;
23712;SDS011;12035;49.978;8.298;2023-11-21T12:55:22;4.63;;;1.50;;
23712;SDS011;12035;49.978;8.298;2023-11-21T13:00:29;3.47;;;1.60;;
23712;SDS011;12035;49.978;8.298;2023-11-21T13:05:32;5.85;;;1.38;;
23712;SDS011;12035;49.978;8.298;2023-11-21T13:10:34;4.05;;;1.60;;
23712;SDS011;12035;49.978;8.298;2023-11-21T13:15:33;4.30;;;1.45;;
23712;SDS011;12035;49.978;8.298;2023-11-21T13:20:31;2.47;;;1.60;;
23712;SDS011;12035;49.978;8.298;2023-11-21T13:25:29;2.80;;;1.65;;
23712;SDS011;12035;49.978;8.298;2023-11-21T13:30:26;4.22;;;1.90;;
23712;SDS011;12035;49.978;8.298;2023-11-21T13:35:30;4.90;;;2.20;;
23712;SDS011;12035;49.978;8.298;2023-11-21T13:40:27;4.55;;;1.98;;
23712;SDS011;12035;49.978;8.298;2023-11-21T13:45:24;4.43;;;2.22;;
23712;SDS011;12035;49.978;8.298;2023-11-21T13:50:23;3.80;;;2.03;;
23712;SDS011;12035;49.978;8.298;2023-11-21T13:55:26;3.22;;;2.10;;
23712;SDS011;12035;49.978;8.298;2023-11-21T14:00:23;5.57;;;2.03;;
23712;SDS011;12035;49.978;8.298;2023-11-21T14:05:39;5.78;;;2.30;;
23712;SDS011;12035;49.978;8.298;2023-11-21T14:10:39;4.70;;;2.67;;
23712;SDS011;12035;49.978;8.298;2023-11-21T14:15:39;7.38;;;2.97;;
23712;SDS011;12035;49.978;8.298;2023-11-21T14:20:40;5.85;;;2.72;;
23712;SDS011;12035;49.978;8.298;2023-11-21T14:25:37;5.85;;;2.65;;
23712;SDS011;12035;49.978;8.298;2023-11-21T14:30:37;5.28;;;2.40;;
23712;SDS011;12035;49.978;8.298;2023-11-21T14:35:34;5.60;;;2.38;;
23712;SDS011;12035;49.978;8.298;2023-11-21T14:40:32;6.65;;;2.50;;
23712;SDS011;12035;49.978;8.298;2023-11-21T14:45:31;3.83;;;2.33;;
23712;SDS011;12035;49.978;8.298;2023-11-21T14:50:29;6.22;;;2.65;;
23712;SDS011;12035;49.978;8.298;2023-11-21T14:55:46;4.07;;;2.00;;
23712;SDS011;12035;49.978;8.298;2023-11-21T15:00:54;4.63;;;2.55;;
23712;SDS011;12035;49.978;8.298;2023-11-21T15:05:55;4.60;;;2.63;;
23712;SDS011;12035;49.978;8.298;2023-11-21T15:10:53;4.72;;;2.33;;
23712;SDS011;12035;49.978;8.298;2023-11-21T15:15:50;3.70;;;2.03;;
23712;SDS011;12035;49.978;8.298;2023-11-21T15:20:50;3.80;;;2.28;;
23712;SDS011;12035;49.978;8.298;2023-11-21T15:25:47;5.53;;;2.30;;
23712;SDS011;12035;49.978;8.298;2023-11-21T15:30:44;7.20;;;2.60;;
23712;SDS011;12035;49.978;8.298;2023-11-21T15:35:43;4.20;;;2.20;;
23712;SDS011;12035;49.978;8.298;2023-11-21T15:40:41;6.07;;;2.60;;
23712;SDS011;12035;49.978;8.298;2023-11-21T15:45:38;6.43;;;3.15;;
23712;SDS011;12035;49.978;8.298;2023-11-21T15:50:36;6.95;;;3.05;;
23712;SDS011;12035;49.978;8.298;2023-11-21T15:55:32;6.45;;;2.75;;
23712;SDS011;12035;49.978;8.298;2023-11-21T16:00:32;4.25;;;2.30;;
23712;SDS011;12035;49.978;8.298;2023-11-21T16:05:30;4.22;;;2.47;;
23712;SDS011;12035;49.978;8.298;2023-11-21T16:10:27;6.03;;;2.72;;
23712;SDS011;12035;49.978;8.298;2023-11-21T16:15:24;9.07;;;3.22;;
23712;SDS011;12035;49.978;8.298;2023-11-21T16:20:22;7.07;;;2.90;;
23712;SDS011;12035;49.978;8.298;2023-11-21T16:25:21;6.75;;;2.97;;
23712;SDS011;12035;49.978;8.298;2023-11-21T16:30:18;7.72;;;3.15;;
23712;SDS011;12035;49.978;8.298;2023-11-21T16:35:19;7.25;;;3.42;;
23712;SDS011;12035;49.978;8.298;2023-11-21T16:40:17;5.93;;;3.30;;
23712;SDS011;12035;49.978;8.298;2023-11-21T16:45:14;6.90;;;3.20;;
23712;SDS011;12035;49.978;8.298;2023-11-21T16:50:12;8.57;;;3.83;;
23712;SDS011;12035;49.978;8.298;2023-11-21T16:55:09;10.07;;;4.50;;
23712;SDS011;12035;49.978;8.298;2023-11-21T17:00:08;10.05;;;4.45;;
23712;SDS011;12035;49.978;8.298;2023-11-21T17:05:07;8.10;;;4.82;;
23712;SDS011;12035;49.978;8.298;2023-11-21T17:10:05;8.18;;;4.60;;
23712;SDS011;12035;49.978;8.298;2023-11-21T17:15:04;11.43;;;4.28;;
23712;SDS011;12035;49.978;8.298;2023-11-21T17:20:05;10.48;;;6.47;;
23712;SDS011;12035;49.978;8.298;2023-11-21T17:25:04;9.10;;;5.57;;
23712;SDS011;12035;49.978;8.298;2023-11-21T17:30:04;11.55;;;5.85;;
23712;SDS011;12035;49.978;8.298;2023-11-21T17:35:04;9.82;;;5.80;;
23712;SDS011;12035;49.978;8.298;2023-11-21T17:40:02;8.27;;;4.85;;
23712;SDS011;12035;49.978;8.298;2023-11-21T17:45:02;10.65;;;5.28;;
23712;SDS011;12035;49.978;8.298;2023-11-21T17:50:01;14.95;;;5.70;;
23712;SDS011;12035;49.978;8.298;2023-11-21T17:54:58;12.45;;;5.57;;
23712;SDS011;12035;49.978;8.298;2023-11-21T17:59:55;11.40;;;6.18;;
23712;SDS011;12035;49.978;8.298;2023-11-21T18:04:52;11.13;;;5.97;;
23712;SDS011;12035;49.978;8.298;2023-11-21T18:09:51;9.50;;;5.20;;
23712;SDS011;12035;49.978;8.298;2023-11-21T18:14:49;11.07;;;5.40;;
23712;SDS011;12035;49.978;8.298;2023-11-21T18:19:46;10.65;;;5.55;;
23712;SDS011;12035;49.978;8.298;2023-11-21T18:24:49;11.50;;;5.75;;
23712;SDS011;12035;49.978;8.298;2023-11-21T18:29:48;10.23;;;5.43;;
23712;SDS011;12035;49.978;8.298;2023-11-21T18:34:45;10.65;;;5.57;;
23712;SDS011;12035;49.978;8.298;2023-11-21T18:39:43;10.45;;;5.47;;
23712;SDS011;12035;49.978;8.298;2023-11-21T18:44:42;11.23;;;5.05;;
23712;SDS011;12035;49.978;8.298;2023-11-21T18:49:41;10.05;;;5.05;;
23712;SDS011;12035;49.978;8.298;2023-11-21T18:54:38;9.27;;;4.88;;
23712;SDS011;12035;49.978;8.298;2023-11-21T18:59:36;11.23;;;4.57;;
23712;SDS011;12035;49.978;8.298;2023-11-21T19:04:38;7.95;;;4.45;;
23712;SDS011;12035;49.978;8.298;2023-11-21T19:09:35;7.95;;;4.95;;
23712;SDS011;12035;49.978;8.298;2023-11-21T19:14:32;9.10;;;4.50;;
23712;SDS011;12035;49.978;8.298;2023-11-21T19:19:29;10.73;;;5.07;;
23712;SDS011;12035;49.978;8.298;2023-11-21T19:24:28;8.73;;;4.40;;
23712;SDS011;12035;49.978;8.298;2023-11-21T19:29:25;8.40;;;4.30;;
23712;SDS011;12035;49.978;8.298;2023-11-21T19:34:22;13.48;;;6.43;;
23712;SDS011;12035;49.978;8.298;2023-11-21T19:39:20;8.27;;;4.30;;
23712;SDS011;12035;49.978;8.298;2023-11-21T19:44:19;4.97;;;3.08;;
23712;SDS011;12035;49.978;8.298;2023-11-21T19:49:16;3.60;;;2.55;;
23712;SDS011;12035;49.978;8.298;2023-11-21T19:54:15;3.85;;;2.45;;
23712;SDS011;12035;49.978;8.298;2023-11-21T19:59:12;7.15;;;3.50;;
23712;SDS011;12035;49.978;8.298;2023-11-21T20:04:12;4.72;;;2.65;;
23712;SDS011;12035;49.978;8.298;2023-11-21T20:09:09;3.55;;;2.10;;
23712;SDS011;12035;49.978;8.298;2023-11-21T20:14:06;3.17;;;1.90;;
23712;SDS011;12035;49.978;8.298;2023-11-21T20:19:03;2.63;;;1.67;;
23712;SDS011;12035;49.978;8.298;2023-11-21T20:24:04;3.00;;;2.08;;
23712;SDS011;12035;49.978;8.298;2023-11-21T20:29:02;9.63;;;4.53;;
23712;SDS011;12035;49.978;8.298;2023-11-21T20:33:59;5.07;;;3.53;;
23712;SDS011;12035;49.978;8.298;2023-11-21T20:38:56;4.10;;;2.70;;
23712;SDS011;12035;49.978;8.298;2023-11-21T20:43:55;3.60;;;2.67;;
23712;SDS011;12035;49.978;8.298;2023-11-21T20:48:52;4.85;;;2.95;;
23712;SDS011;12035;49.978;8.298;2023-11-21T20:53:49;4.90;;;2.63;;
23712;SDS011;12035;49.978;8.298;2023-11-21T20:58:46;3.97;;;2.53;;
23712;SDS011;12035;49.978;8.298;2023-11-21T21:03:45;5.80;;;2.97;;
23712;SDS011;12035;49.978;8.298;2023-11-21T21:08:42;3.35;;;2.30;;
23712;SDS011;12035;49.978;8.298;2023-11-21T21:13:39;3.47;;;2.42;;
23712;SDS011;12035;49.978;8.298;2023-11-21T21:18:36;5.80;;;3.67;;
23712;SDS011;12035;49.978;8.298;2023-11-21T21:23:34;7.43;;;3.40;;
23712;SDS011;12035;49.978;8.298;2023-11-21T21:28:31;5.68;;;3.30;;
23712;SDS011;12035;49.978;8.298;2023-11-21T21:33:28;6.57;;;3.97;;
23712;SDS011;12035;49.978;8.298;2023-11-21T21:38:26;5.18;;;3.35;;
23712;SDS011;12035;49.978;8.298;2023-11-21T21:43:26;5.88;;;3.80;;
23712;SDS011;12035;49.978;8.298;2023-11-21T21:48:24;9.60;;;3.13;;
23712;SDS011;12035;49.978;8.298;2023-11-21T21:53:21;5.75;;;3.50;;
23712;SDS011;12035;49.978;8.298;2023-11-21T21:58:18;5.32;;;2.80;;
23712;SDS011;12035;49.978;8.298;2023-11-21T22:03:17;5.20;;;2.50;;
23712;SDS011;12035;49.978;8.298;2023-11-21T22:08:14;4.40;;;2.63;;
23712;SDS011;12035;49.978;8.298;2023-11-21T22:13:12;3.80;;;2.33;;
23712;SDS011;12035;49.978;8.298;2023-11-21T22:18:09;4.72;;;3.00;;
23712;SDS011;12035;49.978;8.298;2023-11-21T22:23:07;5.35;;;3.00;;
23712;SDS011;12035;49.978;8.298;2023-11-21T22:28:05;6.20;;;3.75;;
23712;SDS011;12035;49.978;8.298;2023-11-21T22:33:03;5.07;;;3.40;;
23712;SDS011;12035;49.978;8.298;2023-11-21T22:38:00;5.32;;;3.60;;
23712;SDS011;12035;49.978;8.298;2023-11-21T22:43:00;5.07;;;3.15;;
23712;SDS011;12035;49.978;8.298;2023-11-21T22:47:57;4.53;;;3.13;;
23712;SDS011;12035;49.978;8.298;2023-11-21T22:52:54;4.97;;;2.90;;
23712;SDS011;12035;49.978;8.298;2023-11-21T22:57:51;5.10;;;3.00;;
23712;SDS011;12035;49.978;8.298;2023-11-21T23:02:50;6.07;;;2.60;;
23712;SDS011;12035;49.978;8.298;2023-11-21T23:07:47;3.63;;;2.20;;
23712;SDS011;12035;49.978;8.298;2023-11-21T23:12:44;4.50;;;2.30;;
23712;SDS011;12035;49.978;8.298;2023-11-21T23:17:41;3.92;;;2.40;;
23712;SDS011;12035;49.978;8.298;2023-11-21T23:22:39;4.43;;;2.63;;
23712;SDS011;12035;49.978;8.298;2023-11-21T23:27:36;5.72;;;2.50;;
23712;SDS011;12035;49.978;8.298;2023-11-21T23:32:33;4.47;;;2.10;;
23712;SDS011;12035;49.978;8.298;2023-11-21T23:37:30;4.18;;;2.22;;
23712;SDS011;12035;49.978;8.298;2023-11-21T23:42:29;3.97;;;1.98;;
23712;SDS011;12035;49.978;8.298;2023-11-21T23:47:26;3.85;;;1.52;;
23712;SDS011;12035;49.978;8.298;2023-11-21T23:52:23;3.05;;;1.95;;
23712;SDS011;12035;49.978;8.298;2023-11-21T23:57:20;3.25;;;1.80;;
